sensor_id;sensor_type;location;lat;lon;timestamp;P1;durP1;ratioP1;P2;durP2;ratioP2
20318;SDS011;10317;47.254;11.314;2024-01-06T00:00:34;18.02;;;8.65;;
20318;SDS011;10317;47.254;11.314;2024-01-06T00:03:00;15.20;;;8.38;;
20318;SDS011;10317;47.254;11.314;2024-01-06T00:05:26;23.02;;;10.07;;
20318;SDS011;10317;47.254;11.314;2024-01-06T00:07:51;14.93;;;8.70;;
20318;SDS011;10317;47.254;11.314;2024-01-06T00:10:17;16.83;;;8.30;;
20318;SDS011;10317;47.254;11.314;2024-01-06T00:12:43;18.35;;;8.73;;
20318;SDS011;10317;47.254;11.314;2024-01-06T00:15:09;12.32;;;8.32;;
20318;SDS011;10317;47.254;11.314;2024-01-06T00:17:35;13.43;;;8.38;;
20318;SDS011;10317;47.254;11.314;2024-01-06T00:20:01;13.32;;;8.15;;
20318;SDS011;10317;47.254;11.314;2024-01-06T00:22:27;16.90;;;8.88;;
20318;SDS011;10317;47.254;11.314;2024-01-06T00:24:53;17.48;;;9.18;;
20318;SDS011;10317;47.254;11.314;2024-01-06T00:27:19;18.38;;;9.25;;
20318;SDS011;10317;47.254;11.314;2024-01-06T00:29:44;15.10;;;8.88;;
20318;SDS011;10317;47.254;11.314;2024-01-06T00:32:10;18.27;;;8.77;;
20318;SDS011;10317;47.254;11.314;2024-01-06T00:34:36;18.65;;;8.35;;
20318;SDS011;10317;47.254;11.314;2024-01-06T00:37:02;17.95;;;8.77;;
20318;SDS011;10317;47.254;11.314;2024-01-06T00:39:28;14.88;;;8.35;;
20318;SDS011;10317;47.254;11.314;2024-01-06T00:41:53;16.00;;;8.45;;
20318;SDS011;10317;47.254;11.314;2024-01-06T00:44:19;14.23;;;9.30;;
20318;SDS011;10317;47.254;11.314;2024-01-06T00:46:45;13.82;;;8.35;;
20318;SDS011;10317;47.254;11.314;2024-01-06T00:49:11;14.90;;;7.97;;
20318;SDS011;10317;47.254;11.314;2024-01-06T00:51:36;13.10;;;8.45;;
20318;SDS011;10317;47.254;11.314;2024-01-06T00:54:02;13.65;;;7.55;;
20318;SDS011;10317;47.254;11.314;2024-01-06T00:56:27;14.23;;;7.88;;
20318;SDS011;10317;47.254;11.314;2024-01-06T00:58:54;17.10;;;8.32;;
20318;SDS011;10317;47.254;11.314;2024-01-06T01:01:19;10.73;;;7.03;;
20318;SDS011;10317;47.254;11.314;2024-01-06T01:03:46;13.63;;;7.43;;
20318;SDS011;10317;47.254;11.314;2024-01-06T01:06:12;9.43;;;7.32;;
20318;SDS011;10317;47.254;11.314;2024-01-06T01:08:37;11.10;;;7.95;;
20318;SDS011;10317;47.254;11.314;2024-01-06T01:11:03;12.70;;;8.20;;
20318;SDS011;10317;47.254;11.314;2024-01-06T01:13:29;12.95;;;8.07;;
20318;SDS011;10317;47.254;11.314;2024-01-06T01:15:55;16.85;;;8.60;;
20318;SDS011;10317;47.254;11.314;2024-01-06T01:18:21;12.88;;;8.20;;
20318;SDS011;10317;47.254;11.314;2024-01-06T01:20:46;12.38;;;7.30;;
20318;SDS011;10317;47.254;11.314;2024-01-06T01:23:12;16.30;;;8.32;;
20318;SDS011;10317;47.254;11.314;2024-01-06T01:25:38;10.43;;;7.60;;
20318;SDS011;10317;47.254;11.314;2024-01-06T01:28:03;9.05;;;6.95;;
20318;SDS011;10317;47.254;11.314;2024-01-06T01:30:29;16.35;;;8.52;;
20318;SDS011;10317;47.254;11.314;2024-01-06T01:32:55;11.73;;;7.72;;
20318;SDS011;10317;47.254;11.314;2024-01-06T01:35:21;15.90;;;7.68;;
20318;SDS011;10317;47.254;11.314;2024-01-06T01:37:46;12.73;;;7.35;;
20318;SDS011;10317;47.254;11.314;2024-01-06T01:40:12;19.80;;;8.75;;
20318;SDS011;10317;47.254;11.314;2024-01-06T01:42:37;13.30;;;8.02;;
20318;SDS011;10317;47.254;11.314;2024-01-06T01:45:04;12.20;;;7.50;;
20318;SDS011;10317;47.254;11.314;2024-01-06T01:47:30;13.85;;;7.35;;
20318;SDS011;10317;47.254;11.314;2024-01-06T01:49:56;13.10;;;7.53;;
20318;SDS011;10317;47.254;11.314;2024-01-06T01:52:22;10.52;;;6.88;;
20318;SDS011;10317;47.254;11.314;2024-01-06T01:54:48;16.25;;;8.10;;
20318;SDS011;10317;47.254;11.314;2024-01-06T01:57:14;11.77;;;7.32;;
20318;SDS011;10317;47.254;11.314;2024-01-06T01:59:41;16.90;;;7.18;;
20318;SDS011;10317;47.254;11.314;2024-01-06T02:02:07;11.15;;;7.40;;
20318;SDS011;10317;47.254;11.314;2024-01-06T02:04:33;15.23;;;7.97;;
20318;SDS011;10317;47.254;11.314;2024-01-06T02:07:00;10.90;;;7.47;;
20318;SDS011;10317;47.254;11.314;2024-01-06T02:09:25;16.17;;;8.93;;
20318;SDS011;10317;47.254;11.314;2024-01-06T02:11:52;12.00;;;7.10;;
20318;SDS011;10317;47.254;11.314;2024-01-06T02:14:18;10.88;;;6.85;;
20318;SDS011;10317;47.254;11.314;2024-01-06T02:16:43;13.85;;;7.88;;
20318;SDS011;10317;47.254;11.314;2024-01-06T02:19:10;9.15;;;7.32;;
20318;SDS011;10317;47.254;11.314;2024-01-06T02:21:39;12.63;;;7.65;;
20318;SDS011;10317;47.254;11.314;2024-01-06T02:24:07;8.82;;;6.95;;
20318;SDS011;10317;47.254;11.314;2024-01-06T02:26:33;8.13;;;6.22;;
20318;SDS011;10317;47.254;11.314;2024-01-06T02:28:58;10.98;;;7.60;;
20318;SDS011;10317;47.254;11.314;2024-01-06T02:31:24;9.48;;;7.38;;
20318;SDS011;10317;47.254;11.314;2024-01-06T02:33:50;11.43;;;6.75;;
20318;SDS011;10317;47.254;11.314;2024-01-06T02:36:15;12.90;;;7.03;;
20318;SDS011;10317;47.254;11.314;2024-01-06T02:38:41;12.85;;;7.65;;
20318;SDS011;10317;47.254;11.314;2024-01-06T02:41:07;8.88;;;6.88;;
20318;SDS011;10317;47.254;11.314;2024-01-06T02:43:32;10.48;;;6.88;;
20318;SDS011;10317;47.254;11.314;2024-01-06T02:45:58;9.98;;;6.70;;
20318;SDS011;10317;47.254;11.314;2024-01-06T02:48:24;9.50;;;6.65;;
20318;SDS011;10317;47.254;11.314;2024-01-06T02:50:49;8.50;;;6.55;;
20318;SDS011;10317;47.254;11.314;2024-01-06T02:53:15;9.32;;;6.90;;
20318;SDS011;10317;47.254;11.314;2024-01-06T02:55:41;12.50;;;7.07;;
20318;SDS011;10317;47.254;11.314;2024-01-06T02:58:06;11.75;;;6.40;;
20318;SDS011;10317;47.254;11.314;2024-01-06T03:00:32;7.82;;;6.03;;
20318;SDS011;10317;47.254;11.314;2024-01-06T03:02:58;9.38;;;6.60;;
20318;SDS011;10317;47.254;11.314;2024-01-06T03:05:23;9.45;;;6.63;;
20318;SDS011;10317;47.254;11.314;2024-01-06T03:07:49;9.68;;;7.03;;
20318;SDS011;10317;47.254;11.314;2024-01-06T03:10:15;9.35;;;6.95;;
20318;SDS011;10317;47.254;11.314;2024-01-06T03:12:40;10.63;;;6.65;;
20318;SDS011;10317;47.254;11.314;2024-01-06T03:15:06;8.77;;;6.40;;
20318;SDS011;10317;47.254;11.314;2024-01-06T03:17:33;10.30;;;7.30;;
20318;SDS011;10317;47.254;11.314;2024-01-06T03:19:58;10.18;;;7.53;;
20318;SDS011;10317;47.254;11.314;2024-01-06T03:22:24;6.60;;;5.93;;
20318;SDS011;10317;47.254;11.314;2024-01-06T03:24:50;8.60;;;7.25;;
20318;SDS011;10317;47.254;11.314;2024-01-06T03:27:15;11.27;;;6.50;;
20318;SDS011;10317;47.254;11.314;2024-01-06T03:29:41;10.77;;;6.72;;
20318;SDS011;10317;47.254;11.314;2024-01-06T03:32:07;8.45;;;6.05;;
20318;SDS011;10317;47.254;11.314;2024-01-06T03:34:32;9.98;;;7.57;;
20318;SDS011;10317;47.254;11.314;2024-01-06T03:36:58;9.85;;;7.13;;
20318;SDS011;10317;47.254;11.314;2024-01-06T03:39:23;7.30;;;6.25;;
20318;SDS011;10317;47.254;11.314;2024-01-06T03:41:49;9.48;;;6.93;;
20318;SDS011;10317;47.254;11.314;2024-01-06T03:44:15;13.23;;;7.07;;
20318;SDS011;10317;47.254;11.314;2024-01-06T03:46:40;8.45;;;6.78;;
20318;SDS011;10317;47.254;11.314;2024-01-06T03:49:06;11.30;;;7.38;;
20318;SDS011;10317;47.254;11.314;2024-01-06T03:51:31;12.90;;;7.53;;
20318;SDS011;10317;47.254;11.314;2024-01-06T03:53:58;9.23;;;6.57;;
20318;SDS011;10317;47.254;11.314;2024-01-06T03:56:24;10.68;;;6.97;;
20318;SDS011;10317;47.254;11.314;2024-01-06T03:58:50;10.98;;;6.63;;
20318;SDS011;10317;47.254;11.314;2024-01-06T04:01:15;10.10;;;7.47;;
20318;SDS011;10317;47.254;11.314;2024-01-06T04:03:41;9.80;;;7.68;;
20318;SDS011;10317;47.254;11.314;2024-01-06T04:06:07;12.00;;;7.13;;
20318;SDS011;10317;47.254;11.314;2024-01-06T04:08:33;11.88;;;7.85;;
20318;SDS011;10317;47.254;11.314;2024-01-06T04:10:58;11.88;;;7.70;;
20318;SDS011;10317;47.254;11.314;2024-01-06T04:13:24;15.20;;;8.55;;
20318;SDS011;10317;47.254;11.314;2024-01-06T04:15:50;12.07;;;8.00;;
20318;SDS011;10317;47.254;11.314;2024-01-06T04:18:16;12.77;;;8.35;;
20318;SDS011;10317;47.254;11.314;2024-01-06T04:20:42;12.18;;;7.65;;
20318;SDS011;10317;47.254;11.314;2024-01-06T04:23:07;14.40;;;8.40;;
20318;SDS011;10317;47.254;11.314;2024-01-06T04:25:33;11.23;;;7.75;;
20318;SDS011;10317;47.254;11.314;2024-01-06T04:27:59;9.77;;;7.43;;
20318;SDS011;10317;47.254;11.314;2024-01-06T04:30:24;8.80;;;6.97;;
20318;SDS011;10317;47.254;11.314;2024-01-06T04:32:51;13.20;;;7.22;;
20318;SDS011;10317;47.254;11.314;2024-01-06T04:35:17;9.15;;;7.13;;
20318;SDS011;10317;47.254;11.314;2024-01-06T04:37:43;10.00;;;7.20;;
20318;SDS011;10317;47.254;11.314;2024-01-06T04:40:09;16.08;;;7.22;;
20318;SDS011;10317;47.254;11.314;2024-01-06T04:42:35;10.75;;;7.35;;
20318;SDS011;10317;47.254;11.314;2024-01-06T04:45:01;12.90;;;8.07;;
20318;SDS011;10317;47.254;11.314;2024-01-06T04:47:27;11.05;;;7.22;;
20318;SDS011;10317;47.254;11.314;2024-01-06T04:49:55;12.05;;;8.20;;
20318;SDS011;10317;47.254;11.314;2024-01-06T04:52:21;9.23;;;7.45;;
20318;SDS011;10317;47.254;11.314;2024-01-06T04:54:47;11.60;;;8.38;;
20318;SDS011;10317;47.254;11.314;2024-01-06T04:57:12;11.52;;;8.55;;
20318;SDS011;10317;47.254;11.314;2024-01-06T04:59:39;11.75;;;8.20;;
20318;SDS011;10317;47.254;11.314;2024-01-06T05:02:05;12.98;;;7.78;;
20318;SDS011;10317;47.254;11.314;2024-01-06T05:04:31;11.35;;;8.07;;
20318;SDS011;10317;47.254;11.314;2024-01-06T05:06:57;13.57;;;9.02;;
20318;SDS011;10317;47.254;11.314;2024-01-06T05:09:23;13.20;;;8.60;;
20318;SDS011;10317;47.254;11.314;2024-01-06T05:11:50;14.23;;;9.30;;
20318;SDS011;10317;47.254;11.314;2024-01-06T05:14:15;14.75;;;9.48;;
20318;SDS011;10317;47.254;11.314;2024-01-06T05:16:41;13.60;;;9.50;;
20318;SDS011;10317;47.254;11.314;2024-01-06T05:19:07;10.70;;;8.43;;
20318;SDS011;10317;47.254;11.314;2024-01-06T05:21:33;15.23;;;8.55;;
20318;SDS011;10317;47.254;11.314;2024-01-06T05:23:59;11.05;;;8.52;;
20318;SDS011;10317;47.254;11.314;2024-01-06T05:26:25;15.27;;;9.40;;
20318;SDS011;10317;47.254;11.314;2024-01-06T05:28:51;13.77;;;9.65;;
20318;SDS011;10317;47.254;11.314;2024-01-06T05:31:17;16.48;;;9.65;;
20318;SDS011;10317;47.254;11.314;2024-01-06T05:33:43;14.95;;;8.52;;
20318;SDS011;10317;47.254;11.314;2024-01-06T05:36:08;11.98;;;8.85;;
20318;SDS011;10317;47.254;11.314;2024-01-06T05:38:35;12.52;;;9.20;;
20318;SDS011;10317;47.254;11.314;2024-01-06T05:41:01;12.93;;;8.95;;
20318;SDS011;10317;47.254;11.314;2024-01-06T05:43:27;14.50;;;9.73;;
20318;SDS011;10317;47.254;11.314;2024-01-06T05:45:53;12.93;;;9.60;;
20318;SDS011;10317;47.254;11.314;2024-01-06T05:48:18;14.82;;;9.95;;
20318;SDS011;10317;47.254;11.314;2024-01-06T05:50:44;16.15;;;10.77;;
20318;SDS011;10317;47.254;11.314;2024-01-06T05:53:10;16.98;;;11.32;;
20318;SDS011;10317;47.254;11.314;2024-01-06T05:55:36;21.23;;;11.15;;
20318;SDS011;10317;47.254;11.314;2024-01-06T05:58:01;19.50;;;9.70;;
20318;SDS011;10317;47.254;11.314;2024-01-06T06:00:27;14.57;;;9.65;;
20318;SDS011;10317;47.254;11.314;2024-01-06T06:02:56;14.60;;;9.15;;
20318;SDS011;10317;47.254;11.314;2024-01-06T06:05:22;18.45;;;9.98;;
20318;SDS011;10317;47.254;11.314;2024-01-06T06:07:47;16.27;;;10.95;;
20318;SDS011;10317;47.254;11.314;2024-01-06T06:10:13;15.48;;;10.15;;
20318;SDS011;10317;47.254;11.314;2024-01-06T06:12:41;14.48;;;9.95;;
20318;SDS011;10317;47.254;11.314;2024-01-06T06:15:07;18.33;;;10.20;;
20318;SDS011;10317;47.254;11.314;2024-01-06T06:17:33;18.70;;;10.93;;
20318;SDS011;10317;47.254;11.314;2024-01-06T06:19:59;13.45;;;9.23;;
20318;SDS011;10317;47.254;11.314;2024-01-06T06:22:25;15.63;;;9.65;;
20318;SDS011;10317;47.254;11.314;2024-01-06T06:24:55;16.15;;;9.48;;
20318;SDS011;10317;47.254;11.314;2024-01-06T06:27:24;14.10;;;9.90;;
20318;SDS011;10317;47.254;11.314;2024-01-06T06:29:50;16.23;;;9.25;;
20318;SDS011;10317;47.254;11.314;2024-01-06T06:32:16;13.95;;;9.82;;
20318;SDS011;10317;47.254;11.314;2024-01-06T06:34:42;15.02;;;8.35;;
20318;SDS011;10317;47.254;11.314;2024-01-06T06:37:07;16.52;;;9.57;;
20318;SDS011;10317;47.254;11.314;2024-01-06T06:39:33;17.88;;;10.00;;
20318;SDS011;10317;47.254;11.314;2024-01-06T06:42:00;20.90;;;9.73;;
20318;SDS011;10317;47.254;11.314;2024-01-06T06:44:26;17.67;;;9.52;;
20318;SDS011;10317;47.254;11.314;2024-01-06T06:46:52;14.48;;;11.65;;
20318;SDS011;10317;47.254;11.314;2024-01-06T06:49:18;24.33;;;12.38;;
20318;SDS011;10317;47.254;11.314;2024-01-06T06:51:43;18.70;;;12.32;;
20318;SDS011;10317;47.254;11.314;2024-01-06T06:54:13;18.98;;;10.90;;
20318;SDS011;10317;47.254;11.314;2024-01-06T06:56:42;18.35;;;11.48;;
20318;SDS011;10317;47.254;11.314;2024-01-06T06:59:08;18.90;;;10.27;;
20318;SDS011;10317;47.254;11.314;2024-01-06T07:01:34;17.08;;;10.25;;
20318;SDS011;10317;47.254;11.314;2024-01-06T07:04:00;15.27;;;9.25;;
20318;SDS011;10317;47.254;11.314;2024-01-06T07:06:27;14.02;;;10.50;;
20318;SDS011;10317;47.254;11.314;2024-01-06T07:08:53;15.02;;;9.35;;
20318;SDS011;10317;47.254;11.314;2024-01-06T07:11:19;16.55;;;10.15;;
20318;SDS011;10317;47.254;11.314;2024-01-06T07:13:45;17.05;;;10.15;;
20318;SDS011;10317;47.254;11.314;2024-01-06T07:16:11;14.25;;;10.00;;
20318;SDS011;10317;47.254;11.314;2024-01-06T07:18:37;14.65;;;10.25;;
20318;SDS011;10317;47.254;11.314;2024-01-06T07:21:06;14.70;;;10.40;;
20318;SDS011;10317;47.254;11.314;2024-01-06T07:23:32;14.88;;;10.50;;
20318;SDS011;10317;47.254;11.314;2024-01-06T07:25:57;16.52;;;12.23;;
20318;SDS011;10317;47.254;11.314;2024-01-06T07:28:23;15.13;;;9.35;;
20318;SDS011;10317;47.254;11.314;2024-01-06T07:30:49;15.43;;;10.02;;
20318;SDS011;10317;47.254;11.314;2024-01-06T07:33:15;14.35;;;8.95;;
20318;SDS011;10317;47.254;11.314;2024-01-06T07:35:40;16.10;;;11.35;;
20318;SDS011;10317;47.254;11.314;2024-01-06T07:38:09;16.67;;;10.02;;
20318;SDS011;10317;47.254;11.314;2024-01-06T07:40:35;18.05;;;10.32;;
20318;SDS011;10317;47.254;11.314;2024-01-06T07:43:01;17.13;;;10.88;;
20318;SDS011;10317;47.254;11.314;2024-01-06T07:45:27;17.17;;;11.85;;
20318;SDS011;10317;47.254;11.314;2024-01-06T07:47:53;17.38;;;11.05;;
20318;SDS011;10317;47.254;11.314;2024-01-06T07:50:18;16.63;;;11.43;;
20318;SDS011;10317;47.254;11.314;2024-01-06T07:52:44;23.85;;;11.90;;
20318;SDS011;10317;47.254;11.314;2024-01-06T07:55:10;16.30;;;11.13;;
20318;SDS011;10317;47.254;11.314;2024-01-06T07:57:35;17.92;;;11.05;;
20318;SDS011;10317;47.254;11.314;2024-01-06T08:00:01;18.25;;;11.10;;
20318;SDS011;10317;47.254;11.314;2024-01-06T08:02:27;18.23;;;11.38;;
20318;SDS011;10317;47.254;11.314;2024-01-06T08:04:53;21.42;;;11.75;;
20318;SDS011;10317;47.254;11.314;2024-01-06T08:07:20;20.70;;;11.30;;
20318;SDS011;10317;47.254;11.314;2024-01-06T08:09:46;19.20;;;11.40;;
20318;SDS011;10317;47.254;11.314;2024-01-06T08:12:12;16.77;;;10.82;;
20318;SDS011;10317;47.254;11.314;2024-01-06T08:14:38;23.45;;;11.48;;
20318;SDS011;10317;47.254;11.314;2024-01-06T08:17:03;18.67;;;11.43;;
20318;SDS011;10317;47.254;11.314;2024-01-06T08:19:29;20.83;;;12.02;;
20318;SDS011;10317;47.254;11.314;2024-01-06T08:21:57;21.45;;;11.40;;
20318;SDS011;10317;47.254;11.314;2024-01-06T08:24:22;23.02;;;12.70;;
20318;SDS011;10317;47.254;11.314;2024-01-06T08:26:49;16.65;;;11.07;;
20318;SDS011;10317;47.254;11.314;2024-01-06T08:29:15;16.85;;;11.77;;
20318;SDS011;10317;47.254;11.314;2024-01-06T08:31:42;15.65;;;11.00;;
20318;SDS011;10317;47.254;11.314;2024-01-06T08:34:07;20.90;;;12.45;;
20318;SDS011;10317;47.254;11.314;2024-01-06T08:36:34;14.25;;;10.85;;
20318;SDS011;10317;47.254;11.314;2024-01-06T08:39:00;13.82;;;10.55;;
20318;SDS011;10317;47.254;11.314;2024-01-06T08:41:25;14.00;;;10.75;;
20318;SDS011;10317;47.254;11.314;2024-01-06T08:43:51;15.90;;;10.90;;
20318;SDS011;10317;47.254;11.314;2024-01-06T08:46:17;19.48;;;11.13;;
20318;SDS011;10317;47.254;11.314;2024-01-06T08:48:42;17.73;;;11.57;;
20318;SDS011;10317;47.254;11.314;2024-01-06T08:51:08;16.27;;;12.68;;
20318;SDS011;10317;47.254;11.314;2024-01-06T08:53:34;20.42;;;12.10;;
20318;SDS011;10317;47.254;11.314;2024-01-06T08:55:59;19.77;;;12.57;;
20318;SDS011;10317;47.254;11.314;2024-01-06T08:58:25;20.77;;;12.60;;
20318;SDS011;10317;47.254;11.314;2024-01-06T09:00:51;18.95;;;11.82;;
20318;SDS011;10317;47.254;11.314;2024-01-06T09:03:18;18.05;;;11.95;;
20318;SDS011;10317;47.254;11.314;2024-01-06T09:05:50;18.88;;;11.90;;
20318;SDS011;10317;47.254;11.314;2024-01-06T09:08:20;18.45;;;12.40;;
20318;SDS011;10317;47.254;11.314;2024-01-06T09:10:46;18.35;;;12.40;;
20318;SDS011;10317;47.254;11.314;2024-01-06T09:13:12;18.02;;;11.18;;
20318;SDS011;10317;47.254;11.314;2024-01-06T09:15:38;17.95;;;12.20;;
20318;SDS011;10317;47.254;11.314;2024-01-06T09:18:04;17.98;;;12.88;;
20318;SDS011;10317;47.254;11.314;2024-01-06T09:20:30;17.17;;;11.65;;
20318;SDS011;10317;47.254;11.314;2024-01-06T09:22:55;20.25;;;12.52;;
20318;SDS011;10317;47.254;11.314;2024-01-06T09:25:21;17.70;;;12.75;;
20318;SDS011;10317;47.254;11.314;2024-01-06T09:27:49;22.08;;;13.00;;
20318;SDS011;10317;47.254;11.314;2024-01-06T09:30:16;22.92;;;13.25;;
20318;SDS011;10317;47.254;11.314;2024-01-06T09:32:42;22.80;;;12.82;;
20318;SDS011;10317;47.254;11.314;2024-01-06T09:35:08;19.23;;;12.32;;
20318;SDS011;10317;47.254;11.314;2024-01-06T09:37:33;18.90;;;12.95;;
20318;SDS011;10317;47.254;11.314;2024-01-06T09:39:59;25.45;;;13.75;;
20318;SDS011;10317;47.254;11.314;2024-01-06T09:42:25;25.33;;;13.65;;
20318;SDS011;10317;47.254;11.314;2024-01-06T09:44:51;23.58;;;14.63;;
20318;SDS011;10317;47.254;11.314;2024-01-06T09:47:17;18.30;;;13.43;;
20318;SDS011;10317;47.254;11.314;2024-01-06T09:49:48;15.63;;;12.27;;
20318;SDS011;10317;47.254;11.314;2024-01-06T09:52:15;21.20;;;13.60;;
20318;SDS011;10317;47.254;11.314;2024-01-06T09:54:46;20.27;;;11.65;;
20318;SDS011;10317;47.254;11.314;2024-01-06T09:57:18;19.80;;;12.90;;
20318;SDS011;10317;47.254;11.314;2024-01-06T09:59:45;18.77;;;11.88;;
20318;SDS011;10317;47.254;11.314;2024-01-06T10:02:15;20.70;;;13.57;;
20318;SDS011;10317;47.254;11.314;2024-01-06T10:04:42;20.55;;;13.48;;
20318;SDS011;10317;47.254;11.314;2024-01-06T10:07:08;23.55;;;14.70;;
20318;SDS011;10317;47.254;11.314;2024-01-06T10:09:37;17.65;;;13.20;;
20318;SDS011;10317;47.254;11.314;2024-01-06T10:12:03;20.65;;;12.75;;
20318;SDS011;10317;47.254;11.314;2024-01-06T10:14:29;16.25;;;11.18;;
20318;SDS011;10317;47.254;11.314;2024-01-06T10:16:55;14.38;;;10.63;;
20318;SDS011;10317;47.254;11.314;2024-01-06T10:19:21;16.02;;;10.75;;
20318;SDS011;10317;47.254;11.314;2024-01-06T10:21:48;12.65;;;9.52;;
20318;SDS011;10317;47.254;11.314;2024-01-06T10:24:14;11.30;;;9.20;;
20318;SDS011;10317;47.254;11.314;2024-01-06T10:26:42;13.32;;;10.27;;
20318;SDS011;10317;47.254;11.314;2024-01-06T10:29:07;19.95;;;12.27;;
20318;SDS011;10317;47.254;11.314;2024-01-06T10:31:33;12.95;;;10.07;;
20318;SDS011;10317;47.254;11.314;2024-01-06T10:33:59;16.95;;;12.30;;
20318;SDS011;10317;47.254;11.314;2024-01-06T10:36:25;17.15;;;10.20;;
20318;SDS011;10317;47.254;11.314;2024-01-06T10:38:52;18.00;;;11.13;;
20318;SDS011;10317;47.254;11.314;2024-01-06T10:41:17;19.40;;;12.10;;
20318;SDS011;10317;47.254;11.314;2024-01-06T10:43:45;18.20;;;12.25;;
20318;SDS011;10317;47.254;11.314;2024-01-06T10:46:13;20.30;;;12.25;;
20318;SDS011;10317;47.254;11.314;2024-01-06T10:48:41;17.00;;;12.40;;
20318;SDS011;10317;47.254;11.314;2024-01-06T10:51:11;16.95;;;12.23;;
20318;SDS011;10317;47.254;11.314;2024-01-06T10:53:41;12.98;;;11.38;;
20318;SDS011;10317;47.254;11.314;2024-01-06T10:56:08;21.35;;;12.68;;
20318;SDS011;10317;47.254;11.314;2024-01-06T10:58:35;22.15;;;12.20;;
20318;SDS011;10317;47.254;11.314;2024-01-06T11:01:07;20.98;;;12.57;;
20318;SDS011;10317;47.254;11.314;2024-01-06T11:03:34;22.40;;;12.90;;
20318;SDS011;10317;47.254;11.314;2024-01-06T11:06:02;16.15;;;12.55;;
20318;SDS011;10317;47.254;11.314;2024-01-06T11:08:28;17.13;;;13.13;;
20318;SDS011;10317;47.254;11.314;2024-01-06T11:10:55;19.52;;;12.38;;
20318;SDS011;10317;47.254;11.314;2024-01-06T11:13:22;22.40;;;12.65;;
20318;SDS011;10317;47.254;11.314;2024-01-06T11:15:50;18.52;;;12.80;;
20318;SDS011;10317;47.254;11.314;2024-01-06T11:18:33;20.10;;;12.35;;
20318;SDS011;10317;47.254;11.314;2024-01-06T11:23:39;18.85;;;11.27;;
20318;SDS011;10317;47.254;11.314;2024-01-06T11:26:08;15.35;;;12.07;;
20318;SDS011;10317;47.254;11.314;2024-01-06T11:28:43;18.27;;;11.48;;
20318;SDS011;10317;47.254;11.314;2024-01-06T11:31:12;25.90;;;12.63;;
20318;SDS011;10317;47.254;11.314;2024-01-06T11:33:42;15.07;;;11.55;;
20318;SDS011;10317;47.254;11.314;2024-01-06T11:36:09;15.27;;;11.63;;
20318;SDS011;10317;47.254;11.314;2024-01-06T11:38:38;17.92;;;11.65;;
20318;SDS011;10317;47.254;11.314;2024-01-06T11:41:06;18.25;;;11.93;;
20318;SDS011;10317;47.254;11.314;2024-01-06T11:43:37;17.30;;;12.05;;
20318;SDS011;10317;47.254;11.314;2024-01-06T11:46:05;17.52;;;12.65;;
20318;SDS011;10317;47.254;11.314;2024-01-06T11:48:33;17.77;;;12.13;;
20318;SDS011;10317;47.254;11.314;2024-01-06T11:50:59;19.45;;;12.48;;
20318;SDS011;10317;47.254;11.314;2024-01-06T11:53:28;20.63;;;12.85;;
20318;SDS011;10317;47.254;11.314;2024-01-06T11:55:53;18.95;;;11.70;;
20318;SDS011;10317;47.254;11.314;2024-01-06T11:58:19;16.55;;;12.57;;
20318;SDS011;10317;47.254;11.314;2024-01-06T12:00:45;17.85;;;11.60;;
20318;SDS011;10317;47.254;11.314;2024-01-06T12:03:20;16.52;;;12.18;;
20318;SDS011;10317;47.254;11.314;2024-01-06T12:05:46;19.13;;;11.57;;
20318;SDS011;10317;47.254;11.314;2024-01-06T12:08:27;18.75;;;12.02;;
20318;SDS011;10317;47.254;11.314;2024-01-06T12:11:03;15.77;;;12.30;;
20318;SDS011;10317;47.254;11.314;2024-01-06T12:24:49;17.58;;;12.88;;
20318;SDS011;10317;47.254;11.314;2024-01-06T12:27:17;17.42;;;11.95;;
20318;SDS011;10317;47.254;11.314;2024-01-06T12:29:46;13.35;;;11.05;;
20318;SDS011;10317;47.254;11.314;2024-01-06T12:32:12;15.50;;;12.05;;
20318;SDS011;10317;47.254;11.314;2024-01-06T12:34:40;13.52;;;10.63;;
20318;SDS011;10317;47.254;11.314;2024-01-06T12:37:06;18.40;;;12.15;;
20318;SDS011;10317;47.254;11.314;2024-01-06T12:39:32;15.02;;;11.55;;
20318;SDS011;10317;47.254;11.314;2024-01-06T12:41:58;16.25;;;10.55;;
20318;SDS011;10317;47.254;11.314;2024-01-06T12:44:26;14.18;;;11.20;;
20318;SDS011;10317;47.254;11.314;2024-01-06T12:46:52;15.15;;;9.70;;
20318;SDS011;10317;47.254;11.314;2024-01-06T12:49:18;17.95;;;11.60;;
20318;SDS011;10317;47.254;11.314;2024-01-06T12:51:44;16.40;;;11.57;;
20318;SDS011;10317;47.254;11.314;2024-01-06T12:54:10;15.60;;;11.35;;
20318;SDS011;10317;47.254;11.314;2024-01-06T12:56:35;14.30;;;10.95;;
20318;SDS011;10317;47.254;11.314;2024-01-06T12:59:01;14.50;;;11.27;;
20318;SDS011;10317;47.254;11.314;2024-01-06T13:01:27;17.15;;;10.50;;
20318;SDS011;10317;47.254;11.314;2024-01-06T13:03:53;16.88;;;10.52;;
20318;SDS011;10317;47.254;11.314;2024-01-06T13:06:19;13.65;;;9.52;;
20318;SDS011;10317;47.254;11.314;2024-01-06T13:08:45;13.40;;;11.35;;
20318;SDS011;10317;47.254;11.314;2024-01-06T13:11:12;14.27;;;11.32;;
20318;SDS011;10317;47.254;11.314;2024-01-06T13:13:38;17.15;;;11.55;;
20318;SDS011;10317;47.254;11.314;2024-01-06T13:16:03;16.83;;;12.23;;
20318;SDS011;10317;47.254;11.314;2024-01-06T13:18:30;17.67;;;11.48;;
20318;SDS011;10317;47.254;11.314;2024-01-06T13:20:56;13.20;;;10.40;;
20318;SDS011;10317;47.254;11.314;2024-01-06T13:23:22;11.85;;;9.75;;
20318;SDS011;10317;47.254;11.314;2024-01-06T13:25:47;18.20;;;11.52;;
20318;SDS011;10317;47.254;11.314;2024-01-06T13:28:13;16.55;;;11.60;;
20318;SDS011;10317;47.254;11.314;2024-01-06T13:30:39;17.58;;;11.07;;
20318;SDS011;10317;47.254;11.314;2024-01-06T13:33:06;15.52;;;11.98;;
20318;SDS011;10317;47.254;11.314;2024-01-06T13:35:32;17.08;;;11.90;;
20318;SDS011;10317;47.254;11.314;2024-01-06T13:37:58;16.00;;;12.48;;
20318;SDS011;10317;47.254;11.314;2024-01-06T13:40:24;19.98;;;12.60;;
20318;SDS011;10317;47.254;11.314;2024-01-06T13:42:50;18.13;;;12.93;;
20318;SDS011;10317;47.254;11.314;2024-01-06T13:45:17;18.30;;;12.88;;
20318;SDS011;10317;47.254;11.314;2024-01-06T13:47:43;21.65;;;11.63;;
20318;SDS011;10317;47.254;11.314;2024-01-06T13:50:13;22.77;;;14.15;;
20318;SDS011;10317;47.254;11.314;2024-01-06T13:52:40;15.23;;;12.45;;
20318;SDS011;10317;47.254;11.314;2024-01-06T13:55:06;23.13;;;14.00;;
20318;SDS011;10317;47.254;11.314;2024-01-06T13:57:33;22.65;;;12.85;;
20318;SDS011;10317;47.254;11.314;2024-01-06T13:59:59;22.63;;;13.32;;
20318;SDS011;10317;47.254;11.314;2024-01-06T14:02:25;21.00;;;13.43;;
20318;SDS011;10317;47.254;11.314;2024-01-06T14:04:51;20.63;;;12.77;;
20318;SDS011;10317;47.254;11.314;2024-01-06T14:07:17;19.52;;;13.45;;
20318;SDS011;10317;47.254;11.314;2024-01-06T14:09:44;23.55;;;14.88;;
20318;SDS011;10317;47.254;11.314;2024-01-06T14:12:10;15.32;;;12.77;;
20318;SDS011;10317;47.254;11.314;2024-01-06T14:14:36;18.33;;;13.50;;
20318;SDS011;10317;47.254;11.314;2024-01-06T14:17:02;18.50;;;12.90;;
20318;SDS011;10317;47.254;11.314;2024-01-06T14:19:28;19.45;;;13.63;;
20318;SDS011;10317;47.254;11.314;2024-01-06T14:21:54;21.20;;;12.85;;
20318;SDS011;10317;47.254;11.314;2024-01-06T14:24:19;21.55;;;13.48;;